createdAt,value
2022-08-26T00:00:20.686Z,99993.67
2022-08-26T00:03:08.860Z,99982.59
2022-08-26T00:05:57.237Z,99985.61
2022-08-26T00:08:46.130Z,99978.06
2022-08-26T00:11:35.861Z,99979.22
2022-08-26T00:14:28.438Z,99980.38
2022-08-26T00:17:19.338Z,99975.30
2022-08-26T00:20:11.157Z,99970.47
2022-08-26T00:22:59.221Z,99970.83
2022-08-26T00:25:47.403Z,99969.55
2022-08-26T00:28:36.306Z,99959.59
2022-08-26T00:31:24.447Z,99965.13
2022-08-26T00:34:12.977Z,99957.86
2022-08-26T00:37:02.194Z,99957.91
2022-08-26T00:39:52.257Z,99954.95
2022-08-26T00:42:41.336Z,99962.31
2022-08-26T00:45:42.367Z,99961.84
2022-08-26T00:48:33.408Z,99952.98
2022-08-26T00:51:24.928Z,99952.21
2022-08-26T00:54:21.142Z,99954.17
2022-08-26T00:57:16.415Z,99947.72
2022-08-26T01:00:10.824Z,99955.36
2022-08-26T01:03:01.301Z,99948.37
2022-08-26T01:05:51.685Z,99951.92
2022-08-26T01:08:40.154Z,99956.80
2022-08-26T01:11:29.338Z,99950.61
2022-08-26T01:14:19.548Z,99956.58
2022-08-26T01:17:09.491Z,99947.98
2022-08-26T01:20:04.250Z,99949.64
2022-08-26T01:22:57.661Z,99946.98
2022-08-26T01:25:51.213Z,99951.60
2022-08-26T01:28:40.645Z,99956.75
2022-08-26T01:31:32.339Z,99945.14
2022-08-26T01:34:24.867Z,99946.00
2022-08-26T01:37:16.257Z,99946.83
2022-08-26T01:40:07.412Z,99946.34
2022-08-26T01:42:56.647Z,99948.28
2022-08-26T01:45:46.572Z,99940.73
2022-08-26T01:48:38.758Z,99946.96
2022-08-26T01:51:27.939Z,99946.73
2022-08-26T01:54:16.330Z,99951.56
2022-08-26T01:57:07.909Z,99942.41
2022-08-26T01:59:59.903Z,99948.10
2022-08-26T02:02:49.255Z,99938.64
2022-08-26T02:05:37.685Z,99948.66
2022-08-26T02:08:29.276Z,99945.95
2022-08-26T02:11:18.412Z,99945.43
2022-08-26T02:14:11.655Z,99948.39
2022-08-26T02:17:00.696Z,99941.67
2022-08-26T02:19:50.452Z,99940.31
2022-08-26T02:22:40.389Z,99948.18
2022-08-26T02:25:32.334Z,99947.12
2022-08-26T02:28:20.536Z,99942.53
2022-08-26T02:31:08.885Z,99945.52
2022-08-26T02:34:08.539Z,99950.95
2022-08-26T02:37:00.565Z,99944.45
2022-08-26T02:39:49.350Z,99946.33
2022-08-26T02:42:37.343Z,99955.52
2022-08-26T02:45:28.391Z,99949.32
2022-08-26T02:48:19.491Z,99954.43
2022-08-26T02:51:08.539Z,99962.82
2022-08-26T02:53:56.902Z,99946.88
2022-08-26T02:56:45.839Z,99957.68
2022-08-26T02:59:35.454Z,99957.42
2022-08-26T03:02:24.046Z,99958.21
2022-08-26T03:05:12.822Z,99959.83
2022-08-26T03:08:01.292Z,99964.18
2022-08-26T03:10:50.435Z,99966.05
2022-08-26T03:13:38.968Z,99967.70
2022-08-26T03:16:32.282Z,99961.48
2022-08-26T03:19:22.185Z,99962.82
2022-08-26T03:22:11.491Z,99967.95
2022-08-26T03:25:02.056Z,99967.42
2022-08-26T03:27:51.412Z,99963.41
2022-08-26T03:30:44.798Z,99959.64
2022-08-26T03:33:34.061Z,99960.45
2022-08-26T03:36:22.414Z,99968.30
2022-08-26T03:39:10.741Z,99959.12
2022-08-26T03:41:59.223Z,99964.54
2022-08-26T03:44:47.535Z,99963.18
2022-08-26T03:47:36.918Z,99962.11
2022-08-26T03:50:27.311Z,99965.09
2022-08-26T03:53:15.486Z,99966.98
2022-08-26T03:56:05.581Z,99964.56
2022-08-26T03:58:54.323Z,99965.64
2022-08-26T04:01:43.201Z,99963.73
2022-08-26T04:04:31.638Z,99968.59
2022-08-26T04:07:19.589Z,99965.11
2022-08-26T04:10:09.977Z,99969.68
2022-08-26T04:12:59.501Z,99971.59
2022-08-26T04:15:47.604Z,99964.28
2022-08-26T04:18:37.651Z,99974.28
2022-08-26T04:21:34.686Z,99967.27
2022-08-26T04:24:26.009Z,99976.70
2022-08-26T04:27:16.589Z,99968.07
2022-08-26T04:30:06.455Z,99969.43
2022-08-26T04:32:57.110Z,99972.92
2022-08-26T04:35:46.029Z,99971.84
2022-08-26T04:38:36.472Z,99976.16
2022-08-26T04:41:24.764Z,99976.16
2022-08-26T04:44:13.221Z,99970.50
2022-08-26T04:47:01.785Z,99972.38
2022-08-26T04:49:54.620Z,99980.45
2022-08-26T04:52:43.164Z,99975.88
2022-08-26T04:55:38.635Z,99973.97
2022-08-26T04:58:31.794Z,99965.59
2022-08-26T05:01:20.966Z,99970.70
2022-08-26T05:04:09.229Z,99967.17
2022-08-26T05:07:02.843Z,99974.41
2022-08-26T05:09:52.324Z,99964.98
2022-08-26T05:12:40.154Z,99959.01
2022-08-26T05:15:28.826Z,99962.45
2022-08-26T05:18:20.166Z,99960.00
2022-08-26T05:21:15.436Z,99959.67
2022-08-26T05:24:05.295Z,99958.30
2022-08-26T05:26:53.248Z,99961.50
2022-08-26T05:29:41.876Z,99960.67
2022-08-26T05:32:31.550Z,99961.44
2022-08-26T05:35:19.900Z,99962.22
2022-08-26T05:38:12.808Z,99959.48
2022-08-26T05:41:01.457Z,99960.24
2022-08-26T05:43:52.440Z,99962.37
2022-08-26T05:46:44.170Z,99963.69
2022-08-26T05:49:32.607Z,99960.38
2022-08-26T05:52:21.509Z,99962.17
2022-08-26T05:55:14.704Z,99965.31
2022-08-26T05:58:04.558Z,99969.27
2022-08-26T06:01:02.955Z,99964.80
2022-08-26T06:03:53.048Z,99969.78
2022-08-26T06:06:41.096Z,99967.72
2022-08-26T06:09:29.708Z,99968.34
2022-08-26T06:12:18.814Z,99964.64
2022-08-26T06:15:09.141Z,99971.75
2022-08-26T06:17:57.322Z,99971.29
2022-08-26T06:20:56.895Z,99970.56
2022-08-26T06:24:05.905Z,99975.95
2022-08-26T06:26:56.406Z,99972.72
2022-08-26T06:29:45.100Z,99977.89
2022-08-26T06:32:33.827Z,99974.95
2022-08-26T06:35:22.598Z,99975.50
2022-08-26T06:38:11.468Z,99976.52
2022-08-26T06:41:00.442Z,99982.16
2022-08-26T06:43:48.832Z,99984.31
2022-08-26T06:46:37.542Z,99988.32
2022-08-26T06:49:26.926Z,99989.89
2022-08-26T06:52:21.188Z,99987.95
2022-08-26T06:55:12.779Z,99987.03
2022-08-26T06:58:01.444Z,99987.17
2022-08-26T07:00:51.833Z,99987.79
2022-08-26T07:03:40.679Z,99979.44
2022-08-26T07:06:29.050Z,99986.63
2022-08-26T07:09:18.128Z,99985.40
2022-08-26T07:12:06.953Z,99982.29
2022-08-26T07:14:55.603Z,99979.92
2022-08-26T07:17:45.933Z,99978.58
2022-08-26T07:20:36.116Z,99972.34
2022-08-26T07:23:24.188Z,99975.43
2022-08-26T07:26:15.795Z,99974.62
2022-08-26T07:29:04.734Z,99974.17
2022-08-26T07:31:53.045Z,99971.12
2022-08-26T07:34:42.087Z,99972.22
2022-08-26T07:37:35.406Z,99979.55
2022-08-26T07:40:24.143Z,99974.72
2022-08-26T07:43:12.167Z,99973.70
2022-08-26T07:46:00.463Z,99968.82
2022-08-26T07:48:49.897Z,99965.53
2022-08-26T07:51:39.155Z,99966.94
2022-08-26T07:54:27.977Z,99970.23
2022-08-26T07:57:16.306Z,99965.31
2022-08-26T08:00:14.045Z,99957.64
2022-08-26T08:03:05.132Z,99963.17
2022-08-26T08:05:53.596Z,99957.31
2022-08-26T08:08:42.023Z,99945.63
2022-08-26T08:11:30.671Z,99947.59
2022-08-26T08:14:20.457Z,99948.09
2022-08-26T08:17:09.689Z,99946.98
2022-08-26T08:19:57.848Z,99948.53
2022-08-26T08:22:46.397Z,99944.07
2022-08-26T08:25:35.900Z,99941.02
2022-08-26T08:28:24.257Z,99930.52
2022-08-26T08:31:38.597Z,99934.48
2022-08-26T08:34:30.561Z,99918.27
2022-08-26T08:37:19.078Z,99924.17
2022-08-26T08:40:10.143Z,99922.09
2022-08-26T08:43:03.571Z,99906.90
2022-08-26T08:45:57.841Z,99904.00
2022-08-26T08:48:56.727Z,99915.66
2022-08-26T08:51:55.046Z,99906.92
2022-08-26T08:54:43.842Z,99910.76
2022-08-26T08:57:43.091Z,99902.45
2022-08-26T09:00:40.001Z,99900.09
2022-08-26T09:03:41.128Z,99906.00
2022-08-26T09:06:29.561Z,99902.47
2022-08-26T09:09:24.520Z,99905.56
2022-08-26T09:12:20.324Z,99902.98
2022-08-26T09:15:18.844Z,99906.72
2022-08-26T09:18:18.331Z,99897.13
2022-08-26T09:21:09.240Z,99902.52
2022-08-26T09:23:58.584Z,99897.23
2022-08-26T09:26:48.340Z,99898.64
2022-08-26T09:29:44.339Z,99894.95
2022-08-26T09:32:33.154Z,99894.41
2022-08-26T09:35:27.442Z,99899.71
2022-08-26T09:38:25.249Z,99900.48
2022-08-26T09:41:31.167Z,99901.50
2022-08-26T09:44:20.537Z,99903.67
2022-08-26T09:47:10.364Z,99893.03
2022-08-26T09:50:05.075Z,99891.49
2022-08-26T09:53:15.108Z,99899.89
2022-08-26T09:56:27.660Z,99897.09
2022-08-26T09:59:30.482Z,99894.81
2022-08-26T10:02:36.628Z,99898.67
2022-08-26T10:05:32.053Z,99894.16
2022-08-26T10:08:24.959Z,99894.33
2022-08-26T10:11:22.321Z,99888.63
2022-08-26T10:14:15.796Z,99879.11
2022-08-26T10:17:09.061Z,99875.34
2022-08-26T10:19:59.598Z,99871.59
2022-08-26T10:22:54.908Z,99872.89
2022-08-26T10:25:48.805Z,99866.70
2022-08-26T10:28:41.579Z,99863.70
2022-08-26T10:31:40.644Z,99867.96
2022-08-26T10:34:29.392Z,99853.78
2022-08-26T10:37:22.852Z,99857.90
2022-08-26T10:40:18.487Z,99849.02
2022-08-26T10:43:14.203Z,99860.14
2022-08-26T10:46:06.882Z,99847.63
2022-08-26T10:48:59.839Z,99845.45
2022-08-26T10:51:57.732Z,99844.02
2022-08-26T10:54:53.559Z,99838.56
2022-08-26T10:57:50.133Z,99831.81
2022-08-26T11:01:02.369Z,99849.63
2022-08-26T11:04:11.373Z,99844.09
2022-08-26T11:07:35.777Z,99842.56
2022-08-26T11:11:02.992Z,99841.46
2022-08-26T11:14:02.315Z,99826.84
2022-08-26T11:16:52.229Z,99827.35
2022-08-26T11:20:09.156Z,99834.09
2022-08-26T11:23:50.790Z,99828.69
2022-08-26T11:26:56.050Z,99826.80
2022-08-26T11:30:04.143Z,99830.39
2022-08-26T11:32:59.042Z,99818.97
2022-08-26T11:35:52.997Z,99821.75
2022-08-26T11:38:46.790Z,99813.86
2022-08-26T11:41:39.852Z,99815.35
2022-08-26T11:44:40.560Z,99816.48
2022-08-26T11:47:34.690Z,99811.34
2022-08-26T11:50:29.615Z,99814.06
2022-08-26T11:53:23.017Z,99810.48
2022-08-26T11:56:24.657Z,99801.83
2022-08-26T11:59:25.354Z,99810.54
2022-08-26T12:02:20.103Z,99801.52
2022-08-26T12:05:14.800Z,99809.81
2022-08-26T12:08:12.418Z,99803.89
2022-08-26T12:11:11.134Z,99798.41
2022-08-26T12:14:07.228Z,99793.30
2022-08-26T12:17:12.162Z,99795.73
2022-08-26T12:20:06.622Z,99788.70
2022-08-26T12:23:00.447Z,99786.30
2022-08-26T12:25:54.078Z,99775.56
2022-08-26T12:28:53.447Z,99768.01
2022-08-26T12:31:49.147Z,99773.17
2022-08-26T12:34:42.354Z,99775.16
2022-08-26T12:37:39.935Z,99767.28
2022-08-26T12:40:40.831Z,99762.97
2022-08-26T12:43:44.974Z,99780.39
2022-08-26T12:46:37.864Z,99778.41
2022-08-26T12:49:29.925Z,99770.89
2022-08-26T12:52:32.142Z,99771.30
2022-08-26T12:55:35.771Z,99766.58
2022-08-26T12:58:34.159Z,99772.52
2022-08-26T13:01:26.545Z,99764.26
2022-08-26T13:04:36.808Z,99765.44
2022-08-26T13:07:29.668Z,99767.80
2022-08-26T13:10:39.028Z,99759.39
2022-08-26T13:13:30.707Z,99771.22
2022-08-26T13:16:24.709Z,99759.39
2022-08-26T13:19:19.173Z,99760.89
2022-08-26T13:22:15.380Z,99756.59
2022-08-26T13:25:08.715Z,99754.27
2022-08-26T13:28:01.452Z,99762.63
2022-08-26T13:30:54.404Z,99762.64
2022-08-26T13:33:46.746Z,99751.58
2022-08-26T13:36:45.410Z,99757.87
2022-08-26T13:39:38.425Z,99755.85
2022-08-26T13:42:31.549Z,99757.41
2022-08-26T13:45:23.517Z,99758.62
2022-08-26T13:48:18.357Z,99748.77
2022-08-26T13:51:12.598Z,99756.23
2022-08-26T13:54:05.256Z,99755.00
2022-08-26T13:56:57.341Z,99755.00
2022-08-26T13:59:49.989Z,99761.30
2022-08-26T14:02:42.534Z,99756.95
2022-08-26T14:05:34.675Z,99759.71
2022-08-26T14:08:27.931Z,99759.27
2022-08-26T14:11:21.563Z,99763.14
2022-08-26T14:14:13.437Z,99763.50
2022-08-26T14:17:07.818Z,99763.86
2022-08-26T14:20:00.362Z,99771.33
2022-08-26T14:26:08.505Z,99765.67
2022-08-26T14:29:02.790Z,99762.89
2022-08-26T14:31:55.877Z,99759.33
2022-08-26T14:34:48.055Z,99759.33
2022-08-26T14:37:39.899Z,99758.55
2022-08-26T14:40:33.953Z,99761.66
2022-08-26T14:43:30.450Z,99762.77
2022-08-26T14:46:22.604Z,99761.12
2022-08-26T14:49:16.048Z,99761.07
2022-08-26T14:52:08.858Z,99761.83
2022-08-26T14:55:00.887Z,99766.56
2022-08-26T14:57:53.544Z,99775.97
2022-08-26T15:00:46.737Z,99775.92
2022-08-26T15:03:38.307Z,99779.05
2022-08-26T15:06:32.043Z,99779.80
2022-08-26T15:09:25.176Z,99778.95
2022-08-26T15:12:18.004Z,99774.11
2022-08-26T15:15:13.926Z,99787.01
2022-08-26T15:18:06.240Z,99780.66
2022-08-26T15:20:59.003Z,99786.09
2022-08-26T15:23:53.093Z,99782.08
2022-08-26T15:26:46.908Z,99783.12
2022-08-26T15:29:39.449Z,99793.22
2022-08-26T15:32:32.404Z,99788.80
2022-08-26T15:35:24.449Z,99787.55
2022-08-26T15:38:18.307Z,99783.09
2022-08-26T15:41:12.002Z,99777.88
2022-08-26T15:44:04.376Z,99784.06
2022-08-26T15:46:58.873Z,99793.36
2022-08-26T15:49:51.219Z,99790.91
2022-08-26T15:52:43.359Z,99784.45
2022-08-26T15:55:35.430Z,99782.39
2022-08-26T15:58:28.751Z,99790.11
2022-08-26T16:01:27.143Z,99801.73
2022-08-26T16:04:20.404Z,99794.79
2022-08-26T16:07:13.079Z,99791.05
2022-08-26T16:10:04.904Z,99799.53
2022-08-26T16:12:57.620Z,99801.72
2022-08-26T16:15:49.912Z,99802.69
2022-08-26T16:18:42.587Z,99801.27
2022-08-26T16:21:34.658Z,99799.97
2022-08-26T16:24:30.413Z,99805.33
2022-08-26T16:27:23.223Z,99808.30
2022-08-26T16:30:19.475Z,99808.16
2022-08-26T16:33:12.019Z,99802.41
2022-08-26T16:36:15.106Z,99808.09
2022-08-26T16:39:09.282Z,99811.03
2022-08-26T16:42:01.701Z,99810.52
2022-08-26T16:44:54.247Z,99815.86
2022-08-26T16:47:47.659Z,99813.73
2022-08-26T16:50:42.128Z,99811.25
2022-08-26T16:53:34.541Z,99815.36
2022-08-26T16:56:33.734Z,99817.45
2022-08-26T16:59:26.913Z,99810.16
2022-08-26T17:02:19.060Z,99809.28
2022-08-26T17:05:12.896Z,99814.25
2022-08-26T17:08:06.571Z,99816.82
2022-08-26T17:11:00.185Z,99813.08
2022-08-26T17:13:52.765Z,99827.44
2022-08-26T17:16:45.015Z,99822.91
2022-08-26T17:19:41.725Z,99823.86
2022-08-26T17:22:43.941Z,99828.68
2022-08-26T17:25:36.067Z,99836.27
2022-08-26T17:28:28.531Z,99830.91
2022-08-26T17:31:21.986Z,99834.97
2022-08-26T17:34:13.977Z,99828.83
2022-08-26T17:37:06.571Z,99832.84
2022-08-26T17:39:58.820Z,99841.52
2022-08-26T17:42:52.950Z,99842.80
2022-08-26T17:45:45.067Z,99847.61
2022-08-26T17:48:38.809Z,99841.00
2022-08-26T17:51:31.207Z,99848.86
2022-08-26T17:54:22.971Z,99846.09
2022-08-26T17:57:15.573Z,99857.86
2022-08-26T18:00:12.569Z,99861.72
2022-08-26T18:03:04.595Z,99867.17
2022-08-26T18:05:57.859Z,99871.48
2022-08-26T18:08:50.106Z,99869.95
2022-08-26T18:11:43.770Z,99880.15
2022-08-26T18:14:37.360Z,99878.97
2022-08-26T18:17:29.451Z,99877.42
2022-08-26T18:20:22.954Z,99888.45
2022-08-26T18:23:16.083Z,99892.84
2022-08-26T18:26:08.641Z,99899.18
2022-08-26T18:29:05.415Z,99893.75
2022-08-26T18:31:57.233Z,99900.08
2022-08-26T18:34:49.236Z,99894.06
2022-08-26T18:37:41.686Z,99896.17
2022-08-26T18:40:34.087Z,99902.16
2022-08-26T18:43:26.250Z,99902.66
2022-08-26T18:46:19.523Z,99906.72
2022-08-26T18:49:12.662Z,99908.03
2022-08-26T18:52:05.667Z,99912.07
2022-08-26T18:54:57.797Z,99915.30
2022-08-26T18:57:50.229Z,99917.39
2022-08-26T19:00:42.202Z,99920.64
2022-08-26T19:03:36.973Z,99928.05
2022-08-26T19:06:33.362Z,99931.27
2022-08-26T19:09:26.659Z,99927.92
2022-08-26T19:12:19.810Z,99927.27
2022-08-26T19:15:14.551Z,99927.44
2022-08-26T19:18:07.780Z,99932.59
2022-08-26T19:21:00.171Z,99938.55
2022-08-26T19:23:52.927Z,99937.87
2022-08-26T19:26:46.084Z,99926.33
2022-08-26T19:29:39.315Z,99933.08
2022-08-26T19:32:31.578Z,99928.09
2022-08-26T19:35:23.681Z,99930.67
2022-08-26T19:38:16.573Z,99925.37
2022-08-26T19:41:11.601Z,99929.86
2022-08-26T19:44:04.824Z,99928.08
2022-08-26T19:46:58.101Z,99923.60
2022-08-26T19:49:53.920Z,99926.97
2022-08-26T19:52:46.197Z,99921.67
2022-08-26T19:55:38.068Z,99919.09
2022-08-26T19:58:30.016Z,99924.70
2022-08-26T20:01:22.705Z,99923.22
2022-08-26T20:04:15.719Z,99919.03
2022-08-26T20:07:07.637Z,99921.42
2022-08-26T20:10:00.010Z,99926.53
2022-08-26T20:12:53.331Z,99926.16
2022-08-26T20:15:46.168Z,99927.75
2022-08-26T20:18:56.565Z,99921.96
2022-08-26T20:21:48.950Z,99930.08
2022-08-26T20:24:41.519Z,99934.39
2022-08-26T20:27:38.302Z,99937.03
2022-08-26T20:30:31.351Z,99940.50
2022-08-26T20:33:23.690Z,99938.87
2022-08-26T20:36:16.926Z,99937.39
2022-08-26T20:39:10.908Z,99948.20
2022-08-26T20:42:03.391Z,99943.51
2022-08-26T20:44:56.243Z,99943.47
2022-08-26T20:47:48.604Z,99939.26
2022-08-26T20:50:40.345Z,99948.13
2022-08-26T20:53:33.749Z,99952.38
2022-08-26T20:56:25.996Z,99952.48
2022-08-26T20:59:19.119Z,99955.94
2022-08-26T21:02:11.313Z,99956.37
2022-08-26T21:05:03.664Z,99959.81
2022-08-26T21:07:56.152Z,99961.82
2022-08-26T21:10:51.240Z,99966.87
2022-08-26T21:14:03.862Z,99961.04
2022-08-26T21:16:55.112Z,99965.29
2022-08-26T21:19:47.433Z,99964.04
2022-08-26T21:22:39.263Z,99963.64
2022-08-26T21:25:31.300Z,99957.80
2022-08-26T21:28:23.269Z,99969.87
2022-08-26T21:31:17.721Z,99959.11
2022-08-26T21:34:10.155Z,99963.03
2022-08-26T21:37:02.291Z,99968.05
2022-08-26T21:40:07.331Z,99965.74
2022-08-26T21:42:59.683Z,99967.73
2022-08-26T21:45:51.824Z,99971.64
2022-08-26T21:48:49.916Z,99972.83
2022-08-26T21:51:45.081Z,99968.59
2022-08-26T21:54:38.256Z,99973.56
2022-08-26T21:57:32.013Z,99979.08
2022-08-26T22:00:25.853Z,99972.92
2022-08-26T22:03:17.923Z,99965.97
2022-08-26T22:06:10.892Z,99973.67
2022-08-26T22:09:03.267Z,99967.82
2022-08-26T22:11:57.180Z,99964.91
2022-08-26T22:14:49.774Z,99961.45
2022-08-26T22:17:42.613Z,99956.41
2022-08-26T22:20:35.933Z,99955.16
2022-08-26T22:23:28.451Z,99950.12
2022-08-26T22:26:25.668Z,99951.80
2022-08-26T22:29:18.831Z,99941.28
2022-08-26T22:32:11.311Z,99948.38
2022-08-26T22:35:28.544Z,99951.47
2022-08-26T22:38:16.883Z,99947.22
2022-08-26T22:41:10.500Z,99941.05
2022-08-26T22:44:02.875Z,99944.41
2022-08-26T22:46:56.357Z,99944.47
2022-08-26T22:49:48.419Z,99945.63
2022-08-26T22:52:40.748Z,99944.38
2022-08-26T22:55:32.890Z,99937.17
2022-08-26T22:58:25.415Z,99935.62
2022-08-26T23:01:24.054Z,99936.50
2022-08-26T23:04:16.414Z,99944.68
2022-08-26T23:07:08.706Z,99934.66
2022-08-26T23:10:01.152Z,99936.64
2022-08-26T23:12:54.092Z,99932.37
2022-08-26T23:15:47.234Z,99932.17
2022-08-26T23:18:40.665Z,99929.81
2022-08-26T23:21:32.900Z,99933.37
2022-08-26T23:24:24.992Z,99926.91
2022-08-26T23:27:17.230Z,99936.69
2022-08-26T23:30:17.251Z,99929.71
2022-08-26T23:33:10.241Z,99928.39
2022-08-26T23:36:09.811Z,99932.77
2022-08-26T23:39:01.950Z,99922.78
2022-08-26T23:41:54.587Z,99926.05
2022-08-26T23:44:44.634Z,99928.53
2022-08-26T23:47:37.225Z,99928.27
2022-08-26T23:50:44.618Z,99925.87
2022-08-26T23:53:37.031Z,99921.30
2022-08-26T23:56:29.388Z,99925.09
2022-08-26T23:59:21.241Z,99926.71
